Time;durP1;ratioP1;P1;durP2;ratioP2;P2;SDS_P1;SDS_P2;PMS_P1;PMS_P2;Temp;Humidity;BMP_temperature;BMP_pressure;BME280_temperature;BME280_humidity;BME280_pressure;Samples;Min_cycle;Max_cycle;Signal;HPM_P1;HPM_P2
2023/10/17 00:01:32;;;;;;;4.63;2.25;;;16.80;99.90;;;;;;5010732;28;20385;-64
2023/10/17 00:06:43;;;;;;;5.32;2.60;;;17.00;99.90;;;;;;5011630;28;20042;-64
2023/10/17 00:09:09;;;;;;;4.85;2.10;;;17.20;99.90;;;;;;5011607;28;20041;-64
2023/10/17 00:14:19;;;;;;;6.28;2.40;;;17.40;99.90;;;;;;5011460;28;20080;-64
2023/10/17 00:16:45;;;;;;;4.15;2.47;;;17.50;99.90;;;;;;5011473;28;20497;-64
2023/10/17 00:19:11;;;;;;;4.70;2.40;;;17.60;99.90;;;;;;5050758;28;20043;-64
2023/10/17 00:21:37;;;;;;;5.45;2.35;;;17.60;99.90;;;;;;5072982;28;20108;-64
2023/10/17 00:24:09;;;;;;;3.10;2.35;;;17.60;99.90;;;;;;5073266;28;20165;-64
2023/10/17 00:26:39;;;;;;;3.80;2.17;;;17.70;99.90;;;;;;5073720;28;20034;-64
2023/10/17 00:29:07;;;;;;;3.70;2.30;;;17.70;99.90;;;;;;5085255;28;20052;-64
2023/10/17 00:31:33;;;;;;;5.53;2.50;;;17.60;99.90;;;;;;5093314;28;20043;-64
2023/10/17 00:34:00;;;;;;;4.07;2.15;;;17.70;99.90;;;;;;5093272;28;20505;-64
2023/10/17 00:36:26;;;;;;;5.13;2.42;;;17.70;99.90;;;;;;5093380;28;20028;-65
2023/10/17 00:38:54;;;;;;;4.53;2.20;;;17.70;99.90;;;;;;5093154;28;20059;-65
2023/10/17 00:41:34;;;;;;;6.18;2.53;;;17.60;99.90;;;;;;5094638;28;20028;-64
2023/10/17 00:43:59;;;;;;;5.95;2.35;;;17.50;99.90;;;;;;5113875;28;20020;-64
2023/10/17 00:46:25;;;;;;;4.13;2.50;;;17.40;99.90;;;;;;5113348;28;20478;-65
2023/10/17 00:48:52;;;;;;;4.55;2.53;;;17.30;99.90;;;;;;5113359;28;20047;-64
2023/10/17 00:51:21;;;;;;;4.10;2.30;;;17.20;99.90;;;;;;5112982;28;20119;-64
2023/10/17 00:53:47;;;;;;;4.60;2.42;;;17.10;99.90;;;;;;5113353;28;20055;-64
2023/10/17 00:56:13;;;;;;;6.13;2.58;;;17.10;99.90;;;;;;5113637;28;20054;-64
2023/10/17 00:58:42;;;;;;;4.50;2.53;;;17.00;99.90;;;;;;5113281;28;20453;-65
2023/10/17 01:01:16;;;;;;;6.20;2.42;;;17.00;99.90;;;;;;5113044;28;20028;-65
2023/10/17 01:03:45;;;;;;;4.35;2.75;;;17.00;99.90;;;;;;5113230;28;20402;-64
2023/10/17 01:06:35;;;;;;;4.90;2.60;;;17.00;99.90;;;;;;5112732;28;20024;-65
2023/10/17 01:09:19;;;;;;;4.50;2.60;;;17.00;99.90;;;;;;5113035;28;20032;-65
2023/10/17 01:11:45;;;;;;;5.30;2.80;;;17.00;99.90;;;;;;5113166;28;20039;-64
2023/10/17 01:14:19;;;;;;;5.22;2.45;;;17.00;99.90;;;;;;5112681;28;20393;-65
2023/10/17 01:16:51;;;;;;;5.38;2.50;;;17.00;99.90;;;;;;5112772;28;20023;-63
2023/10/17 01:19:21;;;;;;;4.93;2.50;;;17.00;99.90;;;;;;5112863;28;20028;-64
2023/10/17 01:21:48;;;;;;;4.78;2.38;;;17.00;99.90;;;;;;5112666;28;20027;-65
2023/10/17 01:24:14;;;;;;;3.10;2.05;;;17.00;99.90;;;;;;5112558;28;20119;-65
2023/10/17 01:26:44;;;;;;;5.25;2.50;;;17.00;99.90;;;;;;5112749;28;20059;-65
2023/10/17 01:29:11;;;;;;;6.50;2.35;;;17.00;99.90;;;;;;5112738;28;20047;-65
2023/10/17 01:31:42;;;;;;;4.75;2.38;;;17.00;99.90;;;;;;5112333;28;20039;-64
2023/10/17 01:34:09;;;;;;;5.32;2.45;;;17.00;99.90;;;;;;5112142;28;20024;-65
2023/10/17 01:36:35;;;;;;;6.97;2.40;;;17.00;99.90;;;;;;5112486;28;20032;-65
2023/10/17 01:39:06;;;;;;;6.88;2.35;;;17.00;99.90;;;;;;5111925;28;20030;-65
2023/10/17 01:41:32;;;;;;;6.70;2.30;;;17.00;99.90;;;;;;5112535;28;20397;-64
2023/10/17 01:43:58;;;;;;;4.70;2.50;;;17.10;99.90;;;;;;5112381;28;20027;-64
2023/10/17 01:46:28;;;;;;;6.25;2.50;;;17.20;99.90;;;;;;5112296;28;20501;-64
2023/10/17 01:48:55;;;;;;;5.80;2.28;;;17.40;99.90;;;;;;5111889;28;20019;-64
2023/10/17 01:51:24;;;;;;;6.85;2.72;;;17.40;99.90;;;;;;5112235;28;20062;-64
2023/10/17 01:53:51;;;;;;;7.38;3.10;;;17.50;99.90;;;;;;5112431;28;20489;-64
2023/10/17 01:56:24;;;;;;;5.97;2.40;;;17.70;99.90;;;;;;5111845;28;20069;-65
2023/10/17 01:58:51;;;;;;;5.30;2.42;;;17.70;99.90;;;;;;5111684;28;20070;-65
2023/10/17 02:01:31;;;;;;;5.32;2.40;;;17.70;99.90;;;;;;5112579;28;20035;-64
2023/10/17 02:04:04;;;;;;;5.75;2.50;;;17.60;99.90;;;;;;5112296;28;20028;-64
2023/10/17 02:06:32;;;;;;;5.68;2.50;;;17.60;99.90;;;;;;5111749;28;20564;-64
2023/10/17 02:09:06;;;;;;;4.22;2.25;;;17.70;99.90;;;;;;5111730;28;20019;-64
2023/10/17 02:11:40;;;;;;;;;;;17.70;99.90;;;;;;5112310;28;20051;-64
2023/10/17 02:14:08;;;;;;;4.57;2.65;;;17.70;99.90;;;;;;5112102;28;19908;-64
2023/10/17 02:16:35;;;;;;;5.32;2.50;;;17.70;99.90;;;;;;5111367;28;20024;-65
2023/10/17 02:19:07;;;;;;;6.35;2.25;;;17.60;99.90;;;;;;5111551;28;20024;-64
2023/10/17 02:21:33;;;;;;;3.20;2.00;;;17.60;99.90;;;;;;5111597;28;20046;-64
2023/10/17 02:24:01;;;;;;;5.40;2.40;;;17.50;99.90;;;;;;5111606;28;20474;-64
2023/10/17 02:26:29;;;;;;;7.85;2.40;;;17.30;99.90;;;;;;5111331;28;20405;-64
2023/10/17 02:29:04;;;;;;;5.20;2.33;;;17.30;99.90;;;;;;5111562;28;20060;-65
2023/10/17 02:31:30;;;;;;;4.47;2.35;;;17.20;99.90;;;;;;5111217;28;20127;-64
2023/10/17 02:33:56;;;;;;;4.60;2.15;;;17.20;99.90;;;;;;5111461;28;20058;-64
2023/10/17 02:36:22;;;;;;;5.55;2.30;;;17.20;99.90;;;;;;5111570;28;20039;-65
2023/10/17 02:38:48;;;;;;;4.60;2.50;;;17.10;99.90;;;;;;5111723;28;20027;-65
2023/10/17 02:41:24;;;;;;;5.70;2.50;;;17.10;99.90;;;;;;5111516;28;20114;-64
2023/10/17 02:43:53;;;;;;;4.63;2.38;;;17.00;99.90;;;;;;5111263;28;20031;-64
2023/10/17 02:46:21;;;;;;;3.85;2.10;;;17.00;99.90;;;;;;5111102;28;20090;-65
2023/10/17 02:48:47;;;;;;;6.60;2.63;;;17.00;99.90;;;;;;5111525;28;20036;-65
2023/10/17 02:53:53;;;;;;;3.85;2.10;;;17.00;99.90;;;;;;5111715;28;20035;-64
2023/10/17 02:56:28;;;;;;;4.40;2.17;;;17.00;99.90;;;;;;5111194;28;20019;-64
2023/10/17 02:59:12;;;;;;;4.38;2.40;;;17.00;99.90;;;;;;5092883;28;20394;-64
2023/10/17 03:01:52;;;;;;;6.68;2.60;;;17.00;99.90;;;;;;5110757;28;20026;-65
2023/10/17 03:04:23;;;;;;;7.30;2.25;;;17.00;99.90;;;;;;5111358;28;20024;-64
2023/10/17 03:06:54;;;;;;;5.75;2.42;;;16.90;99.90;;;;;;5111694;28;20036;-64
2023/10/17 03:14:33;;;;;;;6.70;2.15;;;17.00;99.90;;;;;;5110917;28;20063;-65
2023/10/17 03:16:58;;;;;;;6.57;2.53;;;16.90;99.90;;;;;;5111271;28;20103;-65
2023/10/17 03:19:27;;;;;;;4.95;2.25;;;17.00;99.90;;;;;;5111500;28;20100;-65
2023/10/17 03:21:58;;;;;;;6.13;2.30;;;17.00;99.90;;;;;;5111152;28;20394;-64
2023/10/17 03:24:40;;;;;;;5.20;2.25;;;17.10;99.90;;;;;;5110848;28;20028;-64
2023/10/17 03:27:08;;;;;;;5.18;2.30;;;17.40;99.90;;;;;;5111078;28;20497;-64
2023/10/17 03:29:41;;;;;;;4.63;2.25;;;17.40;99.90;;;;;;5109992;28;20096;-64
2023/10/17 03:32:11;;;;;;;4.40;2.15;;;17.40;99.90;;;;;;5090734;28;20413;-64
2023/10/17 03:34:44;;;;;;;7.13;2.15;;;17.50;99.90;;;;;;5091767;28;20024;-64
2023/10/17 03:39:54;;;;;;;8.18;2.30;;;17.60;99.90;;;;;;5115023;28;20031;-65
2023/10/17 03:45:12;;;;;;;5.20;2.40;;;17.60;99.90;;;;;;5113782;28;20024;-65
2023/10/17 03:47:49;;;;;;;4.10;2.13;;;17.70;99.90;;;;;;5114514;28;20410;-64
2023/10/17 03:53:24;;;;;;;4.70;2.25;;;17.60;99.90;;;;;;5114955;28;20524;-63
2023/10/17 03:55:50;;;;;;;6.00;2.38;;;17.70;99.90;;;;;;5114528;28;20039;-65
2023/10/17 04:00:48;;;;;;;4.45;2.45;;;17.50;99.90;;;;;;5114268;28;20031;-65
2023/10/17 04:03:30;;;;;;;5.68;2.35;;;17.30;99.90;;;;;;5114338;28;20033;-65
2023/10/17 04:08:48;;;;;;;5.85;2.53;;;17.20;99.90;;;;;;5114193;28;20027;-65
2023/10/17 04:11:18;;;;;;;4.90;2.10;;;17.10;99.90;;;;;;5114143;28;20409;-65
2023/10/17 04:13:49;;;;;;;5.63;2.00;;;17.00;99.90;;;;;;5113670;28;20035;-65
2023/10/17 04:16:21;;;;;;;4.63;2.30;;;17.00;99.90;;;;;;5113894;28;20027;-64
2023/10/17 04:18:48;;;;;;;4.70;2.35;;;16.90;99.90;;;;;;5113997;28;20027;-65
2023/10/17 04:21:27;;;;;;;5.43;2.30;;;16.90;99.90;;;;;;5113857;28;20047;-65
2023/10/17 04:23:55;;;;;;;4.95;2.50;;;16.90;99.90;;;;;;5114124;28;20176;-65
2023/10/17 04:26:27;;;;;;;5.38;2.80;;;16.90;99.90;;;;;;5099185;28;20016;-65
2023/10/17 04:29:00;;;;;;;5.00;2.15;;;16.90;99.90;;;;;;5093174;28;20044;-65
2023/10/17 04:31:28;;;;;;;6.00;2.40;;;16.80;99.90;;;;;;5093089;28;20055;-65
2023/10/17 04:34:06;;;;;;;4.03;2.30;;;16.90;99.90;;;;;;5093430;28;20036;-64
2023/10/17 04:36:39;;;;;;;6.35;2.40;;;16.80;99.90;;;;;;5093418;28;20028;-65
2023/10/17 04:44:25;;;;;;;5.50;2.53;;;16.80;99.90;;;;;;5093569;28;20028;-65
2023/10/17 04:49:30;;;;;;;5.90;2.38;;;16.80;99.90;;;;;;5092421;28;20039;-64
2023/10/17 04:52:06;;;;;;;4.78;2.50;;;16.80;99.90;;;;;;5093093;28;20040;-65
2023/10/17 04:57:05;;;;;;;6.07;2.40;;;16.70;99.90;;;;;;5092791;28;20070;-65
2023/10/17 05:07:30;;;;;;;4.88;2.40;;;17.10;99.90;;;;;;5092563;28;20410;-64
2023/10/17 06:18:53;;;;;;;6.05;3.17;;;16.60;99.90;;;;;;5091653;28;20088;-65
2023/10/17 06:21:19;;;;;;;7.32;3.20;;;16.60;99.90;;;;;;5091310;28;20028;-64
2023/10/17 06:28:49;;;;;;;4.28;2.65;;;16.60;99.90;;;;;;5091113;28;20052;-65
2023/10/17 06:34:01;;;;;;;4.85;2.53;;;16.60;99.90;;;;;;5091302;28;20111;-64
2023/10/17 06:36:28;;;;;;;4.75;2.38;;;16.60;99.90;;;;;;5090983;28;20047;-64
2023/10/17 06:38:54;;;;;;;6.07;2.70;;;16.70;99.90;;;;;;5090778;28;20028;-64
2023/10/17 06:41:38;;;;;;;5.60;2.30;;;16.60;99.90;;;;;;5091116;28;20103;-64
2023/10/17 06:44:10;;;;;;;6.90;2.47;;;16.70;99.90;;;;;;5091459;28;20043;-65
2023/10/17 06:46:48;;;;;;;5.45;2.30;;;17.00;99.90;;;;;;5091498;28;20043;-64
2023/10/17 06:54:41;;;;;;;9.27;2.60;;;17.30;99.90;;;;;;5008924;28;20128;-63
2023/10/17 06:57:19;;;;;;;7.40;2.60;;;17.50;99.90;;;;;;5008417;28;20416;-62
2023/10/17 06:59:51;;;;;;;9.80;2.80;;;17.60;99.90;;;;;;5008918;28;20034;-64
2023/10/17 07:02:41;;;;;;;6.18;3.05;;;17.60;99.90;;;;;;5008809;28;20445;-63
2023/10/17 07:05:08;;;;;;;9.35;5.50;;;17.60;99.90;;;;;;5008660;28;20030;-62
2023/10/17 07:07:42;;;;;;;25.52;7.75;;;17.60;99.90;;;;;;5008202;28;20034;-63
2023/10/17 07:10:17;;;;;;;;;;;17.70;99.90;;;;;;5008816;28;20042;-63
2023/10/17 07:12:47;;;;;;;9.95;4.70;;;17.90;99.90;;;;;;5012133;28;20284;-62
2023/10/17 07:15:18;;;;;;;7.03;3.78;;;17.90;99.90;;;;;;5012480;28;20041;-62
2023/10/17 07:23:15;;;;;;;7.55;3.80;;;18.00;99.90;;;;;;5012134;28;20040;-61
2023/10/17 07:25:43;;;;;;;5.95;2.75;;;17.90;99.90;;;;;;5012275;28;20064;-63
2023/10/17 07:28:10;;;;;;;6.50;3.35;;;17.80;99.90;;;;;;5021151;28;20107;-62
2023/10/17 07:30:48;;;;;;;5.18;2.90;;;17.90;99.90;;;;;;5074131;28;20498;-63
2023/10/17 07:33:17;;;;;;;6.60;2.53;;;17.90;99.90;;;;;;5074086;28;20016;-63
2023/10/17 07:35:43;;;;;;;6.82;2.55;;;18.00;99.90;;;;;;5073654;28;20109;-62
2023/10/17 07:38:13;;;;;;;6.07;2.45;;;18.10;99.90;;;;;;5074099;28;20498;-62
2023/10/17 07:43:07;;;;;;;4.78;2.55;;;18.00;99.90;;;;;;5073406;28;20120;-63
2023/10/17 07:45:39;;;;;;;5.03;2.45;;;18.00;99.90;;;;;;5073101;28;20025;-63
2023/10/17 07:48:21;;;;;;;5.13;2.83;;;18.10;99.90;;;;;;5073753;28;20017;-64
2023/10/17 07:50:50;;;;;;;9.25;2.60;;;18.10;99.90;;;;;;5073345;28;20067;-63
2023/10/17 07:53:19;;;;;;;7.43;2.60;;;18.10;99.90;;;;;;5074207;28;20029;-63
2023/10/17 07:55:51;;;;;;;5.65;2.55;;;18.20;99.90;;;;;;5073264;28;20339;-62
2023/10/17 07:58:30;;;;;;;6.25;2.42;;;18.20;99.90;;;;;;5073605;28;20511;-62
2023/10/17 08:00:56;;;;;;;14.38;3.15;;;18.20;99.90;;;;;;5073695;28;20033;-62
2023/10/17 08:03:27;;;;;;;12.35;3.03;;;18.40;99.90;;;;;;5073539;28;20368;-63
2023/10/17 08:06:05;;;;;;;4.95;2.25;;;18.50;99.90;;;;;;5073762;28;20025;-63
2023/10/17 08:08:35;;;;;;;3.78;2.20;;;18.50;99.90;;;;;;5072998;28;20116;-64
2023/10/17 08:11:08;;;;;;;6.97;2.28;;;18.50;99.90;;;;;;5072210;28;20044;-63
2023/10/17 08:13:34;;;;;;;6.22;2.40;;;18.60;99.90;;;;;;5072994;28;20028;-63
2023/10/17 08:16:10;;;;;;;5.28;2.30;;;18.60;99.90;;;;;;5073437;28;20078;-63
2023/10/17 08:18:42;;;;;;;6.20;2.75;;;18.60;99.90;;;;;;5072788;28;20024;-63
2023/10/17 08:23:52;;;;;;;581.95;88.68;;;18.70;99.90;;;;;;5073917;28;20407;-63
2023/10/17 08:26:18;;;;;;;595.97;97.63;;;18.90;99.90;;;;;;5093490;28;20032;-63
2023/10/17 08:33:56;;;;;;;35.53;7.00;;;19.30;99.90;;;;;;5092536;28;20091;-63
2023/10/17 08:36:28;;;;;;;1098.30;204.65;;;19.30;99.90;;;;;;5093074;28;20020;-63
2023/10/17 08:38:54;;;;;;;926.25;165.10;;;19.30;99.90;;;;;;5093145;28;20441;-63
2023/10/17 08:41:23;;;;;;;287.77;45.53;;;19.40;99.90;;;;;;5093434;28;20077;-63
2023/10/17 08:43:49;;;;;;;111.72;17.77;;;19.50;99.90;;;;;;5093307;28;20081;-63
2023/10/17 08:46:17;;;;;;;51.60;8.45;;;19.50;99.90;;;;;;5092762;28;20479;-62
2023/10/17 08:48:44;;;;;;;29.10;5.60;;;19.50;99.90;;;;;;5092821;28;20053;-63
2023/10/17 08:51:14;;;;;;;181.80;26.58;;;19.60;99.90;;;;;;5093074;28;20040;-63
2023/10/17 08:53:42;;;;;;;608.40;90.82;;;19.70;99.90;;;;;;5092952;28;20032;-63
2023/10/17 08:56:08;;;;;;;372.85;55.30;;;19.70;99.90;;;;;;5092942;28;20035;-63
2023/10/17 08:58:36;;;;;;;226.43;33.58;;;19.90;99.90;;;;;;5092649;28;20436;-63
2023/10/17 09:01:11;;;;;;;137.90;21.73;;;19.80;99.90;;;;;;5092647;28;20036;-63
2023/10/17 09:03:41;;;;;;;940.58;169.15;;;19.70;99.90;;;;;;5092608;28;20024;-63
2023/10/17 09:09:19;;;;;;;1048.30;188.73;;;19.60;99.90;;;;;;5074447;28;20498;-62
2023/10/17 09:11:41;;;;;;;480.48;70.28;;;19.60;99.90;;;;;;5074218;28;20105;-64
2023/10/17 09:14:29;;;;;;;103.05;15.68;;;19.70;99.90;;;;;;5092036;28;20085;-63
2023/10/17 09:17:13;;;;;;;39.92;5.95;;;19.80;99.90;;;;;;5091934;28;20020;-64
2023/10/17 09:19:46;;;;;;;26.42;4.82;;;19.90;99.90;;;;;;5091979;28;20024;-63
2023/10/17 09:22:15;;;;;;;23.27;3.85;;;19.90;99.90;;;;;;5092498;28;20016;-63
2023/10/17 09:24:45;;;;;;;25.73;3.90;;;20.10;99.90;;;;;;5092138;28;20024;-63
2023/10/17 09:27:15;;;;;;;32.83;4.30;;;20.10;99.90;;;;;;5092240;28;20115;-63
2023/10/17 09:29:50;;;;;;;44.30;6.13;;;20.10;99.90;;;;;;5092168;28;20048;-63
2023/10/17 09:32:35;;;;;;;39.15;4.70;;;20.20;99.90;;;;;;5090390;28;20043;-63
2023/10/17 09:35:22;;;;;;;18.17;3.10;;;20.20;99.90;;;;;;5076824;28;20059;-63
2023/10/17 09:37:51;;;;;;;17.00;3.17;;;20.30;99.90;;;;;;5079081;28;20038;-63
2023/10/17 09:40:25;;;;;;;8.40;2.67;;;20.30;99.90;;;;;;5073705;28;20020;-63
2023/10/17 09:42:51;;;;;;;12.38;3.17;;;20.30;99.90;;;;;;5092167;28;20058;-63
2023/10/17 09:45:17;;;;;;;7.65;2.53;;;20.30;99.90;;;;;;5091445;28;20063;-63
2023/10/17 09:47:44;;;;;;;6.40;2.30;;;20.30;99.90;;;;;;5091559;28;20070;-63
2023/10/17 09:50:21;;;;;;;4.63;2.20;;;20.50;99.90;;;;;;5091750;28;20035;-63
2023/10/17 09:52:54;;;;;;;7.82;2.05;;;20.60;99.90;;;;;;5091747;28;20055;-64
2023/10/17 09:55:24;;;;;;;2.72;2.00;;;20.60;99.90;;;;;;5086790;28;20055;-63
2023/10/17 09:58:08;;;;;;;3.22;2.10;;;20.70;99.90;;;;;;5082225;28;20461;-63
2023/10/17 10:00:39;;;;;;;5.30;2.35;;;20.80;99.90;;;;;;5074959;28;20024;-63
2023/10/17 10:03:07;;;;;;;4.00;1.92;;;20.90;99.90;;;;;;5091736;28;20103;-63
2023/10/17 10:05:32;;;;;;;4.80;2.05;;;20.90;99.90;;;;;;5091069;28;20031;-63
2023/10/17 10:08:27;;;;;;;7.18;4.53;;;21.10;99.90;;;;;;5073540;28;20020;-62
2023/10/17 10:10:53;;;;;;;11.57;7.43;;;21.40;99.90;;;;;;5091207;28;20046;-63
2023/10/17 10:13:20;;;;;;;27.92;20.10;;;21.40;99.90;;;;;;5091576;28;20016;-64
2023/10/17 10:15:59;;;;;;;8.18;6.78;;;21.40;99.90;;;;;;5091083;28;20020;-63
2023/10/17 10:18:43;;;;;;;3.75;3.30;;;21.50;99.90;;;;;;5091064;28;20098;-63
2023/10/17 10:21:08;;;;;;;;;;;21.70;99.90;;;;;;5092146;28;20054;-63
2023/10/17 10:23:42;;;;;;;5.97;2.55;;;21.80;99.90;;;;;;5091159;28;19904;-64
2023/10/17 10:26:10;;;;;;;5.85;2.60;;;21.90;99.90;;;;;;5078823;28;20487;-63
2023/10/17 10:28:40;;;;;;;4.93;2.10;;;22.00;99.90;;;;;;5082789;28;20052;-63
2023/10/17 10:31:26;;;;;;;2.30;1.70;;;21.90;99.90;;;;;;5109419;28;20039;-63
2023/10/17 10:33:54;;;;;;;4.70;1.85;;;22.00;99.90;;;;;;5096968;28;20039;-61
2023/10/17 10:36:23;;;;;;;6.25;1.80;;;22.00;99.90;;;;;;5096302;28;20036;-63
2023/10/17 10:38:57;;;;;;;3.55;1.60;;;22.10;99.90;;;;;;5094050;28;20052;-63
2023/10/17 10:41:22;;;;;;;;;;;22.20;99.90;;;;;;5107722;28;20038;-63
2023/10/17 10:43:57;;;;;;;3.20;2.00;;;22.20;99.90;;;;;;5110885;28;19912;-64
2023/10/17 10:46:22;;;;;;;3.47;1.80;;;22.20;99.90;;;;;;5092404;28;20024;-63
2023/10/17 10:48:51;;;;;;;3.30;1.80;;;22.20;99.90;;;;;;5098960;28;20417;-64
2023/10/17 10:51:17;;;;;;;3.40;2.05;;;22.20;99.90;;;;;;5098734;28;20581;-63
2023/10/17 10:53:54;;;;;;;2.63;1.60;;;22.30;99.90;;;;;;5099550;28;20081;-63
2023/10/17 10:56:21;;;;;;;6.05;1.90;;;22.30;99.90;;;;;;5103350;28;20554;-64
2023/10/17 10:58:53;;;;;;;2.50;1.52;;;22.30;99.90;;;;;;5105015;28;20478;-64
2023/10/17 11:01:20;;;;;;;1.48;1.33;;;22.40;99.90;;;;;;5106287;28;20035;-63
2023/10/17 11:03:47;;;;;;;4.10;1.77;;;22.40;99.90;;;;;;5106476;28;20043;-64
2023/10/17 11:06:13;;;;;;;2.20;1.58;;;22.50;99.90;;;;;;5106512;28;20032;-63
2023/10/17 11:08:46;;;;;;;3.72;1.70;;;22.50;99.90;;;;;;5096636;28;20024;-64
2023/10/17 11:11:15;;;;;;;3.53;1.63;;;22.70;99.90;;;;;;5092792;28;20040;-63
2023/10/17 11:13:45;;;;;;;3.67;1.73;;;22.70;99.90;;;;;;5090718;28;20639;-64
2023/10/17 11:16:12;;;;;;;4.75;1.90;;;22.80;99.90;;;;;;5090703;28;20107;-65
2023/10/17 11:18:44;;;;;;;2.53;1.50;;;22.90;99.90;;;;;;5090644;28;20117;-65
2023/10/17 11:21:13;;;;;;;2.55;1.60;;;23.10;99.90;;;;;;5090656;28;20028;-65
2023/10/17 11:23:47;;;;;;;2.25;1.60;;;23.30;99.90;;;;;;5090499;28;20024;-65
2023/10/17 11:26:17;;;;;;;4.97;1.95;;;23.30;99.90;;;;;;5089955;28;20036;-65
2023/10/17 11:28:46;;;;;;;2.63;1.70;;;23.30;99.90;;;;;;5090101;28;20458;-65
2023/10/17 11:31:21;;;;;;;2.30;1.80;;;23.40;99.90;;;;;;5090573;28;20115;-65
2023/10/17 11:34:02;;;;;;;2.92;1.83;;;23.50;99.90;;;;;;5090810;28;20028;-64
2023/10/17 11:36:44;;;;;;;4.05;1.70;;;23.60;99.90;;;;;;5090799;28;20487;-63
2023/10/17 11:39:10;;;;;;;2.58;1.52;;;23.60;99.90;;;;;;5090692;28;20380;-64
2023/10/17 11:41:46;;;;;;;2.35;1.70;;;23.80;99.90;;;;;;5090314;28;20024;-63
2023/10/17 11:44:13;;;;;;;3.78;1.70;;;24.00;99.90;;;;;;5090687;28;20028;-64
2023/10/17 11:46:39;;;;;;;4.10;1.77;;;24.20;99.90;;;;;;5090638;28;20038;-65
2023/10/17 11:49:20;;;;;;;4.97;1.80;;;24.20;99.90;;;;;;5090700;28;20465;-64
2023/10/17 11:51:56;;;;;;;1.98;1.52;;;24.40;99.90;;;;;;5090020;28;20127;-65
2023/10/17 11:54:25;;;;;;;2.20;1.60;;;24.50;99.90;;;;;;5090370;28;20017;-65
2023/10/17 11:56:51;;;;;;;1.85;1.40;;;24.60;99.90;;;;;;5071238;28;20036;-65
2023/10/17 11:59:19;;;;;;;4.43;1.70;;;24.70;99.90;;;;;;5093177;28;20376;-64
2023/10/17 12:01:46;;;;;;;4.68;1.58;;;24.90;99.90;;;;;;5094267;28;20032;-63
2023/10/17 12:04:16;;;;;;;3.47;1.60;;;24.90;99.90;;;;;;5093814;28;20069;-63
2023/10/17 12:06:44;;;;;;;2.65;1.55;;;24.70;99.90;;;;;;5093947;28;20035;-64
2023/10/17 12:11:53;;;;;;;3.28;1.58;;;24.90;99.90;;;;;;5093811;28;20036;-64
2023/10/17 12:14:19;;;;;;;2.25;1.60;;;25.10;99.90;;;;;;5093808;28;20091;-63
2023/10/17 12:16:54;;;;;;;5.75;1.60;;;25.30;99.90;;;;;;5094015;28;20028;-63
2023/10/17 12:19:21;;;;;;;4.90;1.50;;;25.30;99.90;;;;;;5093931;28;20024;-64
2023/10/17 12:21:49;;;;;;;6.85;1.80;;;25.30;99.90;;;;;;5093790;28;20078;-63
2023/10/17 12:24:37;;;;;;;4.50;1.67;;;25.30;99.90;;;;;;5093493;28;20522;-63
2023/10/17 12:27:02;;;;;;;3.22;1.30;;;25.20;99.90;;;;;;5092852;28;20109;-62
2023/10/17 12:29:29;;;;;;;3.28;1.30;;;25.60;99.90;;;;;;5093114;28;20507;-63
2023/10/17 12:31:55;;;;;;;3.25;1.70;;;25.60;99.90;;;;;;5098577;28;20040;-62
2023/10/17 12:34:20;;;;;;;4.18;1.52;;;25.40;99.90;;;;;;5102581;28;20040;-63
2023/10/17 12:36:48;;;;;;;3.10;1.58;;;25.40;99.90;;;;;;5093317;28;20097;-64
2023/10/17 12:39:16;;;;;;;2.97;1.58;;;25.60;99.90;;;;;;5092918;28;20032;-62
2023/10/17 12:41:49;;;;;;;4.88;1.40;;;25.70;99.90;;;;;;5093091;28;20562;-63
2023/10/17 12:44:17;;;;;;;3.27;1.43;;;25.70;99.90;;;;;;5093280;28;20039;-63
2023/10/17 12:46:44;;;;;;;13.05;2.00;;;25.70;99.90;;;;;;5092706;28;20035;-64
2023/10/17 12:49:14;;;;;;;5.93;1.65;;;25.80;99.90;;;;;;5092769;28;20533;-63
2023/10/17 12:51:41;;;;;;;7.13;1.73;;;25.80;99.90;;;;;;5092679;28;20040;-63
2023/10/17 12:54:07;;;;;;;3.13;1.52;;;25.70;99.90;;;;;;5097854;28;20501;-64
2023/10/17 12:56:36;;;;;;;4.68;1.50;;;25.70;99.90;;;;;;5099262;28;20154;-61
2023/10/17 12:59:12;;;;;;;4.60;1.70;;;25.70;99.90;;;;;;5110217;28;20034;-63
2023/10/17 13:01:38;;;;;;;6.22;1.42;;;25.60;99.90;;;;;;5109810;28;20028;-62
2023/10/17 13:04:04;;;;;;;5.03;1.70;;;25.70;99.90;;;;;;5093111;28;20024;-63
2023/10/17 13:06:29;;;;;;;50.63;4.65;;;25.70;99.90;;;;;;5092037;28;20034;-62
2023/10/17 13:08:58;;;;;;;82.03;5.53;;;25.70;99.90;;;;;;5090827;28;20111;-64
2023/10/17 13:11:26;;;;;;;35.65;3.35;;;25.70;99.90;;;;;;5092200;28;20036;-63
2023/10/17 13:13:52;;;;;;;17.52;2.25;;;25.70;99.90;;;;;;5093051;28;20032;-63
2023/10/17 13:16:19;;;;;;;13.63;2.03;;;25.70;99.90;;;;;;5102262;28;20042;-63
2023/10/17 13:18:47;;;;;;;8.50;1.55;;;25.90;99.90;;;;;;5093194;28;20020;-63
2023/10/17 13:21:14;;;;;;;11.77;1.88;;;26.10;99.90;;;;;;5092462;28;20056;-63
2023/10/17 13:23:40;;;;;;;5.40;1.75;;;26.20;99.90;;;;;;5091952;28;20038;-63
2023/10/17 13:26:12;;;;;;;6.95;1.60;;;26.10;99.90;;;;;;5091957;28;20024;-63
2023/10/17 13:28:39;;;;;;;7.35;1.65;;;26.20;99.90;;;;;;5090909;28;20040;-63
2023/10/17 13:31:14;;;;;;;5.18;1.67;;;26.30;99.90;;;;;;5092012;28;20448;-63
2023/10/17 13:33:41;;;;;;;3.75;1.23;;;26.30;99.90;;;;;;5092057;28;20077;-64
2023/10/17 13:36:10;;;;;;;3.75;1.55;;;26.30;99.90;;;;;;5091882;28;20445;-63
2023/10/17 13:38:37;;;;;;;3.78;1.35;;;26.30;99.90;;;;;;5091794;28;20432;-63
2023/10/17 13:41:14;;;;;;;4.32;1.50;;;26.30;99.90;;;;;;5092366;28;20401;-63
2023/10/17 13:43:42;;;;;;;7.30;1.45;;;26.30;99.90;;;;;;5092209;28;20035;-64
2023/10/17 13:46:13;;;;;;;7.22;1.35;;;26.20;99.90;;;;;;5091557;28;20521;-63
2023/10/17 13:48:48;;;;;;;9.10;1.40;;;26.40;99.90;;;;;;5091828;28;20020;-63
2023/10/17 13:51:15;;;;;;;12.23;1.90;;;26.40;99.90;;;;;;5091935;28;20094;-63
2023/10/17 13:53:43;;;;;;;3.35;1.20;;;26.40;99.90;;;;;;5091377;28;20046;-63
2023/10/17 13:56:18;;;;;;;22.33;3.78;;;26.60;99.90;;;;;;5091634;28;20086;-62
2023/10/17 13:58:46;;;;;;;6.70;1.58;;;26.70;99.90;;;;;;5091818;28;20028;-63
2023/10/17 14:01:28;;;;;;;6.28;1.80;;;27.10;99.90;;;;;;5091872;28;20090;-64
2023/10/17 14:03:55;;;;;;;2.97;1.52;;;27.50;99.90;;;;;;5091476;28;20060;-63
2023/10/17 14:06:22;;;;;;;7.43;1.50;;;27.60;99.90;;;;;;5091710;28;20028;-63
2023/10/17 14:08:48;;;;;;;10.15;1.92;;;27.70;99.90;;;;;;5091094;28;20093;-63
2023/10/17 14:11:17;;;;;;;5.50;1.52;;;27.70;99.90;;;;;;5091350;28;20483;-63
2023/10/17 14:13:49;;;;;;;7.85;1.70;;;27.80;99.90;;;;;;5091269;28;20027;-64
2023/10/17 14:16:15;;;;;;;3.35;1.38;;;27.80;99.90;;;;;;5091372;28;20023;-63
2023/10/17 14:18:43;;;;;;;2.63;1.30;;;27.80;99.90;;;;;;5091597;28;20028;-63
2023/10/17 14:24:00;;;;;;;3.78;1.50;;;28.10;99.90;;;;;;5093360;28;20065;-63
2023/10/17 14:26:30;;;;;;;4.82;2.10;;;27.60;99.90;;;;;;5111670;28;20040;-64
2023/10/17 14:29:02;;;;;;;3.63;1.40;;;27.30;99.90;;;;;;5111649;28;20048;-64
2023/10/17 14:31:30;;;;;;;2.90;1.60;;;27.00;99.90;;;;;;5111541;28;20074;-63
2023/10/17 14:33:57;;;;;;;2.72;1.42;;;27.00;99.90;;;;;;5111711;28;20028;-63
2023/10/17 14:36:23;;;;;;;5.15;1.40;;;27.10;99.90;;;;;;5111266;28;20028;-63
2023/10/17 14:38:49;;;;;;;5.13;1.40;;;27.40;99.90;;;;;;5111299;28;20035;-63
2023/10/17 14:41:15;;;;;;;6.05;1.55;;;27.80;99.90;;;;;;5111646;28;20145;-64
2023/10/17 14:43:46;;;;;;;4.18;1.20;;;28.00;99.90;;;;;;5111062;28;20035;-64
2023/10/17 14:46:13;;;;;;;3.03;1.42;;;28.00;99.90;;;;;;5111260;28;20035;-63
2023/10/17 14:48:40;;;;;;;8.32;1.60;;;28.00;99.90;;;;;;5111540;28;20528;-63
2023/10/17 14:51:06;;;;;;;3.72;1.23;;;27.90;99.90;;;;;;5110894;28;20827;-63
2023/10/17 14:53:32;;;;;;;6.18;1.60;;;27.80;99.90;;;;;;5111299;28;20024;-64
2023/10/17 14:55:59;;;;;;;4.38;1.73;;;27.40;99.90;;;;;;5111586;28;20077;-63
2023/10/17 14:58:25;;;;;;;6.85;1.40;;;27.10;99.90;;;;;;5111272;28;20028;-63
2023/10/17 15:00:55;;;;;;;5.32;1.20;;;27.10;99.90;;;;;;5111578;28;20406;-63
2023/10/17 15:03:21;;;;;;;5.30;1.40;;;26.80;99.90;;;;;;5111224;28;20062;-63
2023/10/17 15:05:47;;;;;;;5.43;1.65;;;26.80;99.90;;;;;;5111083;28;20055;-63
2023/10/17 15:08:14;;;;;;;2.05;1.20;;;26.70;99.90;;;;;;5111079;28;20045;-63
2023/10/17 15:10:40;;;;;;;25.02;3.15;;;26.70;99.90;;;;;;5111052;28;20080;-63
2023/10/17 15:13:08;;;;;;;6.43;1.48;;;26.70;99.90;;;;;;5111562;28;20027;-63
2023/10/17 15:15:34;;;;;;;4.55;1.42;;;26.70;99.90;;;;;;5106730;28;20201;-64
2023/10/17 15:18:00;;;;;;;4.35;1.33;;;26.70;99.90;;;;;;5072362;28;20572;-62
2023/10/17 15:20:26;;;;;;;3.40;1.20;;;26.80;99.90;;;;;;5090454;28;20107;-63
2023/10/17 15:22:52;;;;;;;2.88;1.10;;;26.70;99.90;;;;;;5090553;28;20490;-65
2023/10/17 15:25:19;;;;;;;1.75;1.20;;;26.60;99.90;;;;;;5104055;28;20023;-64
2023/10/17 15:27:48;;;;;;;2.05;1.10;;;26.60;99.90;;;;;;5110896;28;20032;-64
2023/10/17 15:30:14;;;;;;;2.97;1.20;;;26.40;99.90;;;;;;5110957;28;20038;-65
2023/10/17 15:32:40;;;;;;;2.78;1.20;;;26.40;99.90;;;;;;5112686;28;20026;-63